Terminal Aerodrome Forecast
Issued by NWS

Home | Current Version | Previous Version | Text Only | Print | Product List | Glossary On
Versions: 1 2 3 4 5 6 7 8 9 10 11 12 13 14 15 16 17 18
000
FTUS41 KPBZ 232335
TAFZZV
TAF
KZZV 232335Z 2400/2424 13004KT P6SM BKN150
     FM240600 00000KT P6SM VCSH BKN050
     FM240800 11003KT P6SM VCSH BKN025
     FM241100 12004KT P6SM BKN015
     FM241900 13008KT P6SM -SHRA OVC015
     FM242200 13007KT P6SM -SHRA OVC008=

USA.gov is the U.S. government's official web portal to all federal, state and local government web resources and services.